createdAt,value
2018-12-09T00:01:50.686Z,88.80
2018-12-09T00:03:55.065Z,88.40
2018-12-09T00:05:59.523Z,87.90
2018-12-09T00:08:04.022Z,88.40
2018-12-09T00:10:08.542Z,87.70
2018-12-09T00:12:13.987Z,86.80
2018-12-09T00:14:18.468Z,84.90
2018-12-09T00:16:22.868Z,84.00
2018-12-09T00:18:27.303Z,83.00
2018-12-09T00:20:31.669Z,85.20
2018-12-09T00:22:36.074Z,84.70
2018-12-09T00:24:40.487Z,83.30
2018-12-09T00:26:45.317Z,84.10
2018-12-09T00:28:49.711Z,84.40
2018-12-09T00:30:54.107Z,85.50
2018-12-09T00:32:59.911Z,85.00
2018-12-09T00:35:04.389Z,85.00
2018-12-09T00:37:08.939Z,84.30
2018-12-09T00:39:13.296Z,85.60
2018-12-09T00:41:17.711Z,85.90
2018-12-09T00:43:22.351Z,87.00
2018-12-09T00:45:26.760Z,86.90
2018-12-09T00:47:31.149Z,86.90
2018-12-09T00:49:35.670Z,86.20
2018-12-09T00:51:40.163Z,85.10
2018-12-09T00:53:44.691Z,85.40
2018-12-09T00:55:49.107Z,84.90
2018-12-09T00:57:53.528Z,85.30
2018-12-09T00:59:58.574Z,84.10
2018-12-09T01:02:07.483Z,84.80
2018-12-09T01:04:11.905Z,83.20
2018-12-09T01:06:16.456Z,82.40
2018-12-09T01:08:20.880Z,83.50
2018-12-09T01:10:25.365Z,82.50
2018-12-09T01:12:30.427Z,82.20
2018-12-09T01:14:35.212Z,82.40
2018-12-09T01:16:39.861Z,82.90
2018-12-09T01:18:44.315Z,82.60
2018-12-09T01:20:48.918Z,82.30
2018-12-09T01:22:53.362Z,84.30
2018-12-09T01:24:57.746Z,83.90
2018-12-09T01:27:02.322Z,85.40
2018-12-09T01:29:07.279Z,86.30
2018-12-09T01:31:11.693Z,87.00
2018-12-09T01:33:16.651Z,86.80
2018-12-09T01:35:21.104Z,86.20
2018-12-09T01:37:25.496Z,86.80
2018-12-09T01:39:30.020Z,86.70
2018-12-09T01:41:34.690Z,87.10
2018-12-09T01:43:39.035Z,86.90
2018-12-09T01:45:43.544Z,87.70
2018-12-09T01:47:47.962Z,88.10
2018-12-09T01:49:52.334Z,86.50
2018-12-09T01:51:56.746Z,87.60
2018-12-09T01:54:10.328Z,87.30
2018-12-09T01:56:14.756Z,86.80
2018-12-09T01:58:19.371Z,87.20
2018-12-09T02:00:23.793Z,87.70
2018-12-09T02:02:28.282Z,87.70
2018-12-09T02:04:33.414Z,87.70
2018-12-09T02:06:37.846Z,87.20
2018-12-09T02:08:42.383Z,87.00
2018-12-09T02:10:46.976Z,87.00
2018-12-09T02:12:51.484Z,87.00
2018-12-09T02:14:56.142Z,86.50
2018-12-09T02:17:00.502Z,86.60
2018-12-09T02:19:16.178Z,86.60
2018-12-09T02:21:20.531Z,86.20
2018-12-09T02:23:25.155Z,86.10
2018-12-09T02:25:29.655Z,86.00
2018-12-09T02:27:34.111Z,85.40
2018-12-09T02:29:38.590Z,85.30
2018-12-09T02:31:43.457Z,85.40
2018-12-09T02:33:47.890Z,85.90
2018-12-09T02:35:52.321Z,86.30
2018-12-09T02:37:56.722Z,86.50
2018-12-09T02:40:04.089Z,86.60
2018-12-09T02:42:08.461Z,86.60
2018-12-09T02:44:12.915Z,86.90
2018-12-09T02:46:17.376Z,86.90
2018-12-09T02:48:21.737Z,86.30
2018-12-09T02:50:26.129Z,86.50
2018-12-09T02:52:30.565Z,86.60
2018-12-09T02:54:34.959Z,86.50
2018-12-09T02:56:39.355Z,86.40
2018-12-09T02:58:43.769Z,86.90
2018-12-09T03:00:48.144Z,86.40
2018-12-09T03:02:52.554Z,86.50
2018-12-09T03:04:56.983Z,86.60
2018-12-09T03:07:01.355Z,86.20
2018-12-09T03:09:07.347Z,86.30
2018-12-09T03:11:11.802Z,86.50
2018-12-09T03:13:16.160Z,85.80
2018-12-09T03:15:20.663Z,85.30
2018-12-09T03:17:25.317Z,85.60
2018-12-09T03:19:29.705Z,85.00
2018-12-09T03:21:34.180Z,85.60
2018-12-09T03:23:38.570Z,85.40
2018-12-09T03:25:42.941Z,84.70
2018-12-09T03:27:47.300Z,84.60
2018-12-09T03:29:51.818Z,84.80
2018-12-09T03:31:56.328Z,85.00
2018-12-09T03:34:00.682Z,84.90
2018-12-09T03:36:05.230Z,83.70
2018-12-09T03:38:09.732Z,83.30
2018-12-09T03:40:14.114Z,83.70
2018-12-09T03:42:18.819Z,84.50
2018-12-09T03:44:23.204Z,84.20
2018-12-09T03:46:27.565Z,83.70
2018-12-09T03:48:32.042Z,83.40
2018-12-09T03:50:36.483Z,83.20
2018-12-09T03:52:40.878Z,84.10
2018-12-09T03:54:45.338Z,83.50
2018-12-09T03:56:49.738Z,83.40
2018-12-09T03:58:54.092Z,83.80
2018-12-09T04:00:58.501Z,82.20
2018-12-09T04:03:02.890Z,83.40
2018-12-09T04:05:07.552Z,82.80
2018-12-09T04:07:11.979Z,82.60
2018-12-09T04:09:16.412Z,82.70
2018-12-09T04:11:21.167Z,82.50
2018-12-09T04:13:25.599Z,82.90
2018-12-09T04:15:30.137Z,81.20
2018-12-09T04:17:34.482Z,82.10
2018-12-09T04:19:39.381Z,82.30
2018-12-09T04:21:43.811Z,82.80
2018-12-09T04:23:48.158Z,82.30
2018-12-09T04:25:52.581Z,81.60
2018-12-09T04:27:56.918Z,82.30
2018-12-09T04:30:01.313Z,82.30
2018-12-09T04:32:05.811Z,82.40
2018-12-09T04:34:10.177Z,82.10
2018-12-09T04:36:14.547Z,81.60
2018-12-09T04:38:18.997Z,82.00
2018-12-09T04:40:23.420Z,82.80
2018-12-09T04:42:27.796Z,82.70
2018-12-09T04:44:32.202Z,82.30
2018-12-09T04:46:36.666Z,82.90
2018-12-09T04:48:41.049Z,82.90
2018-12-09T04:50:45.432Z,82.80
2018-12-09T04:52:49.809Z,83.40
2018-12-09T04:54:54.392Z,83.40
2018-12-09T04:56:58.875Z,83.80
2018-12-09T04:59:16.085Z,83.70
2018-12-09T05:01:20.458Z,84.00
2018-12-09T05:03:24.871Z,83.80
2018-12-09T05:05:29.411Z,83.80
2018-12-09T05:07:33.836Z,83.80
2018-12-09T05:09:38.227Z,85.00
2018-12-09T05:11:42.639Z,85.30
2018-12-09T05:13:47.058Z,85.50
2018-12-09T05:15:51.490Z,85.70
2018-12-09T05:17:56.007Z,85.90
2018-12-09T05:20:00.369Z,86.00
2018-12-09T05:22:04.806Z,85.80
2018-12-09T05:24:09.221Z,85.70
2018-12-09T05:26:13.575Z,85.80
2018-12-09T05:28:18.017Z,85.70
2018-12-09T05:30:23.425Z,85.80
2018-12-09T05:32:27.795Z,85.50
2018-12-09T05:34:32.171Z,85.90
2018-12-09T05:36:36.577Z,86.00
2018-12-09T05:38:41.042Z,87.10
2018-12-09T05:40:45.478Z,86.70
2018-12-09T05:42:49.923Z,86.50
2018-12-09T05:44:54.298Z,86.80
2018-12-09T05:46:58.762Z,86.80
2018-12-09T05:49:03.122Z,86.80
2018-12-09T05:51:07.511Z,86.50
2018-12-09T05:53:11.975Z,86.70
2018-12-09T05:55:16.488Z,86.00
2018-12-09T05:57:20.914Z,86.20
2018-12-09T05:59:26.192Z,86.20
2018-12-09T06:01:30.583Z,86.10
2018-12-09T06:03:34.958Z,86.30
2018-12-09T06:05:39.310Z,86.00
2018-12-09T06:07:43.826Z,86.90
2018-12-09T06:09:48.277Z,86.40
2018-12-09T06:11:52.769Z,86.30
2018-12-09T06:13:57.177Z,86.50
2018-12-09T06:16:01.575Z,86.60
2018-12-09T06:18:05.932Z,86.20
2018-12-09T06:20:10.334Z,86.50
2018-12-09T06:22:14.701Z,86.70
2018-12-09T06:24:19.277Z,86.20
2018-12-09T06:26:23.663Z,86.00
2018-12-09T06:28:28.868Z,86.40
2018-12-09T06:30:33.292Z,85.80
2018-12-09T06:32:37.734Z,85.80
2018-12-09T06:34:42.249Z,85.80
2018-12-09T06:36:46.670Z,86.00
2018-12-09T06:38:51.084Z,86.20
2018-12-09T06:40:55.513Z,86.50
2018-12-09T06:42:59.932Z,86.80
2018-12-09T06:45:04.807Z,86.80
2018-12-09T06:47:09.677Z,86.70
2018-12-09T06:49:14.155Z,86.80
2018-12-09T06:51:18.571Z,86.80
2018-12-09T06:53:23.331Z,86.80
2018-12-09T06:55:28.354Z,86.70
2018-12-09T06:57:32.747Z,86.80
2018-12-09T06:59:37.115Z,87.10
2018-12-09T07:01:41.550Z,87.00
2018-12-09T07:03:45.899Z,86.80
2018-12-09T07:05:50.311Z,86.70
2018-12-09T07:07:54.716Z,87.00
2018-12-09T07:09:59.104Z,87.20
2018-12-09T07:12:03.494Z,87.20
2018-12-09T07:14:07.886Z,87.20
2018-12-09T07:16:12.314Z,87.30
2018-12-09T07:18:16.725Z,87.40
2018-12-09T07:20:21.166Z,87.60
2018-12-09T07:22:25.574Z,87.80
2018-12-09T07:24:30.232Z,87.50
2018-12-09T07:26:34.669Z,87.60
2018-12-09T07:28:39.057Z,87.50
2018-12-09T07:30:43.570Z,87.30
2018-12-09T07:32:47.945Z,86.80
2018-12-09T07:34:52.367Z,86.70
2018-12-09T07:36:56.793Z,86.60
2018-12-09T07:39:01.312Z,86.70
2018-12-09T07:41:05.734Z,87.40
2018-12-09T07:43:10.238Z,86.70
2018-12-09T07:45:15.449Z,86.70
2018-12-09T07:47:19.915Z,86.80
2018-12-09T07:49:24.649Z,86.80
2018-12-09T07:51:29.185Z,86.80
2018-12-09T07:53:33.556Z,86.70
2018-12-09T07:55:37.943Z,86.70
2018-12-09T07:57:42.385Z,86.30
2018-12-09T07:59:46.748Z,86.30
2018-12-09T08:01:51.165Z,86.30
2018-12-09T08:03:55.578Z,86.80
2018-12-09T08:06:01.203Z,86.30
2018-12-09T08:08:05.643Z,86.70
2018-12-09T08:10:10.079Z,86.70
2018-12-09T08:12:14.448Z,86.50
2018-12-09T08:14:18.846Z,86.80
2018-12-09T08:16:23.521Z,86.80
2018-12-09T08:18:27.934Z,86.80
2018-12-09T08:20:32.482Z,86.80
2018-12-09T08:22:36.906Z,86.80
2018-12-09T08:24:41.341Z,86.80
2018-12-09T08:26:46.605Z,86.80
2018-12-09T08:28:50.996Z,86.80
2018-12-09T08:30:55.581Z,87.10
2018-12-09T08:33:01.962Z,86.90
2018-12-09T08:37:49.332Z,86.80
2018-12-09T08:39:53.858Z,86.90
2018-12-09T08:41:58.489Z,86.80
2018-12-09T08:44:03.123Z,87.00
2018-12-09T08:46:07.506Z,86.90
2018-12-09T08:48:11.921Z,86.90
2018-12-09T08:50:16.368Z,86.90
2018-12-09T08:52:20.782Z,86.90
2018-12-09T08:54:25.177Z,87.20
2018-12-09T08:56:36.318Z,87.90
2018-12-09T08:58:41.182Z,88.20
2018-12-09T09:00:45.587Z,84.90
2018-12-09T09:02:49.995Z,84.80
2018-12-09T09:04:54.479Z,85.70
2018-12-09T09:06:58.942Z,85.70
2018-12-09T09:09:04.426Z,87.20
2018-12-09T09:11:08.809Z,87.70
2018-12-09T09:13:13.166Z,88.20
2018-12-09T09:15:17.625Z,87.60
2018-12-09T09:17:22.107Z,87.40
2018-12-09T09:19:26.550Z,88.40
2018-12-09T09:21:31.035Z,89.00
2018-12-09T09:23:35.538Z,88.30
2018-12-09T09:25:39.967Z,88.40
2018-12-09T09:27:45.182Z,88.20
2018-12-09T09:29:49.590Z,88.40
2018-12-09T09:34:16.016Z,88.60
2018-12-09T09:36:20.563Z,89.00
2018-12-09T09:38:24.968Z,89.00
2018-12-09T09:40:29.452Z,89.20
2018-12-09T09:42:33.919Z,89.40
2018-12-09T09:44:38.507Z,89.00
2018-12-09T09:46:44.638Z,89.40
2018-12-09T09:48:49.081Z,89.10
2018-12-09T09:50:53.467Z,89.20
2018-12-09T09:52:57.817Z,89.20
2018-12-09T09:55:02.382Z,89.20
2018-12-09T09:57:06.869Z,89.10
2018-12-09T09:59:11.241Z,89.50
2018-12-09T10:01:15.630Z,89.30
2018-12-09T10:03:25.912Z,89.40
2018-12-09T10:05:31.103Z,89.20
2018-12-09T10:07:35.466Z,89.20
2018-12-09T10:09:39.855Z,89.40
2018-12-09T10:11:44.435Z,89.30
2018-12-09T10:13:48.862Z,89.20
2018-12-09T10:15:53.298Z,89.30
2018-12-09T10:17:57.662Z,89.10
2018-12-09T10:20:02.127Z,89.10
2018-12-09T10:22:06.488Z,89.30
2018-12-09T10:24:10.932Z,88.70
2018-12-09T10:26:15.274Z,89.00
2018-12-09T10:28:19.961Z,89.50
2018-12-09T10:30:24.369Z,89.60
2018-12-09T10:32:28.717Z,89.30
2018-12-09T10:34:38.782Z,89.60
2018-12-09T10:36:37.729Z,89.50
2018-12-09T10:38:42.121Z,89.30
2018-12-09T10:40:46.537Z,89.50
2018-12-09T10:42:50.927Z,90.00
2018-12-09T10:44:55.294Z,89.60
2018-12-09T10:46:59.808Z,89.40
2018-12-09T10:49:04.151Z,89.50
2018-12-09T10:51:08.551Z,89.60
2018-12-09T10:53:13.013Z,90.00
2018-12-09T10:55:17.430Z,89.80
2018-12-09T10:57:21.842Z,90.10
2018-12-09T10:59:26.303Z,90.10
2018-12-09T11:01:45.867Z,90.00
2018-12-09T11:03:50.361Z,90.10
2018-12-09T11:05:54.874Z,90.00
2018-12-09T11:07:59.374Z,90.10
2018-12-09T11:10:03.866Z,90.10
2018-12-09T11:12:08.590Z,90.10
2018-12-09T11:14:13.036Z,90.10
2018-12-09T11:16:17.447Z,90.20
2018-12-09T11:18:21.910Z,90.10
2018-12-09T11:20:26.353Z,90.10
2018-12-09T11:22:30.743Z,90.10
2018-12-09T11:24:35.376Z,90.10
2018-12-09T11:26:41.117Z,90.30
2018-12-09T11:28:45.607Z,90.30
2018-12-09T11:30:51.892Z,90.30
2018-12-09T11:32:56.418Z,90.20
2018-12-09T11:35:00.869Z,90.10
2018-12-09T11:37:05.267Z,90.20
2018-12-09T11:39:11.000Z,90.20
2018-12-09T11:41:15.385Z,90.30
2018-12-09T11:43:19.868Z,90.30
2018-12-09T11:45:25.260Z,90.20
2018-12-09T11:47:29.828Z,90.30
2018-12-09T11:49:34.290Z,90.20
2018-12-09T11:51:38.864Z,90.30
2018-12-09T11:53:44.709Z,90.20
2018-12-09T11:55:49.121Z,90.20
2018-12-09T11:57:53.523Z,90.20
2018-12-09T11:59:58.020Z,90.20
2018-12-09T12:02:02.574Z,90.20
2018-12-09T12:04:08.235Z,90.30
2018-12-09T12:06:13.623Z,90.20
2018-12-09T12:08:17.982Z,90.20
2018-12-09T12:10:22.484Z,90.20
2018-12-09T12:12:26.977Z,90.20
2018-12-09T12:14:31.339Z,90.30
2018-12-09T12:16:35.831Z,90.20
2018-12-09T12:18:40.268Z,90.20
2018-12-09T12:20:44.657Z,90.40
2018-12-09T12:22:49.061Z,90.40
2018-12-09T12:24:53.513Z,90.50
2018-12-09T12:26:58.747Z,90.20
2018-12-09T12:29:03.150Z,90.40
2018-12-09T12:31:07.543Z,90.60
2018-12-09T12:33:11.989Z,90.50
2018-12-09T12:35:16.446Z,90.50
2018-12-09T12:37:21.201Z,90.40
2018-12-09T12:39:25.706Z,90.30
2018-12-09T12:41:31.893Z,90.30
2018-12-09T12:43:34.722Z,90.30
2018-12-09T12:45:39.174Z,90.40
2018-12-09T12:47:43.712Z,90.50
2018-12-09T12:49:48.227Z,90.50
2018-12-09T12:51:52.706Z,90.60
2018-12-09T12:53:57.139Z,90.60
2018-12-09T12:56:01.650Z,90.80
2018-12-09T12:58:06.115Z,90.70
2018-12-09T13:00:15.243Z,90.60
2018-12-09T13:02:19.605Z,90.50
2018-12-09T13:04:24.024Z,90.70
2018-12-09T13:06:29.106Z,90.50
2018-12-09T13:08:33.534Z,90.40
2018-12-09T13:10:37.990Z,90.40
2018-12-09T13:12:42.350Z,90.40
2018-12-09T13:14:46.863Z,90.40
2018-12-09T13:16:51.274Z,90.50
2018-12-09T13:18:55.610Z,90.60
2018-12-09T13:21:00.141Z,90.40
2018-12-09T13:23:04.597Z,90.40
2018-12-09T13:25:08.967Z,90.40
2018-12-09T13:27:13.333Z,90.40
2018-12-09T13:29:17.722Z,90.40
2018-12-09T13:31:22.097Z,90.40
2018-12-09T13:33:26.607Z,90.40
2018-12-09T13:35:31.045Z,90.40
2018-12-09T13:37:35.559Z,90.40
2018-12-09T13:39:39.987Z,90.50
2018-12-09T13:41:44.491Z,90.30
2018-12-09T13:43:49.521Z,90.30
2018-12-09T13:45:53.946Z,90.40
2018-12-09T13:47:58.439Z,90.50
2018-12-09T13:50:07.134Z,90.20
2018-12-09T13:52:15.993Z,90.20
2018-12-09T13:54:24.244Z,90.70
2018-12-09T13:56:28.863Z,90.30
2018-12-09T13:58:33.312Z,90.20
2018-12-09T14:00:37.730Z,90.30
2018-12-09T14:02:42.092Z,90.40
2018-12-09T14:04:46.638Z,90.20
2018-12-09T14:06:51.096Z,90.30
2018-12-09T14:08:55.460Z,90.20
2018-12-09T14:10:59.918Z,90.30
2018-12-09T14:13:04.338Z,90.40
2018-12-09T14:15:09.299Z,90.20
2018-12-09T14:17:13.714Z,90.20
2018-12-09T14:19:18.174Z,90.30
2018-12-09T14:21:22.662Z,90.20
2018-12-09T14:23:27.103Z,90.10
2018-12-09T14:25:31.567Z,90.00
2018-12-09T14:27:36.586Z,90.10
2018-12-09T14:29:40.385Z,90.10
2018-12-09T14:31:44.979Z,90.00
2018-12-09T14:33:49.501Z,90.00
2018-12-09T14:35:54.034Z,89.90
2018-12-09T14:37:58.468Z,89.90
2018-12-09T14:40:02.855Z,90.10
2018-12-09T14:42:07.300Z,90.00
2018-12-09T14:44:11.780Z,90.00
2018-12-09T14:46:16.237Z,90.10
2018-12-09T14:48:20.728Z,90.00
2018-12-09T14:50:25.089Z,89.90
2018-12-09T14:52:29.474Z,90.10
2018-12-09T14:54:33.874Z,90.10
2018-12-09T14:56:38.292Z,90.10
2018-12-09T14:58:42.741Z,89.90
2018-12-09T15:00:47.146Z,89.90
2018-12-09T15:02:51.564Z,89.50
2018-12-09T15:04:56.095Z,89.60
2018-12-09T15:07:00.707Z,89.60
2018-12-09T15:09:06.532Z,89.50
2018-12-09T15:11:11.263Z,89.70
2018-12-09T15:13:15.647Z,89.60
2018-12-09T15:15:20.285Z,89.50
2018-12-09T15:17:24.770Z,89.60
2018-12-09T15:19:29.180Z,89.50
2018-12-09T15:21:33.619Z,89.60
2018-12-09T15:23:38.100Z,89.30
2018-12-09T15:25:42.531Z,89.50
2018-12-09T15:27:46.918Z,89.80
2018-12-09T15:29:51.404Z,89.60
2018-12-09T15:31:55.810Z,89.40
2018-12-09T15:34:00.372Z,89.00
2018-12-09T15:36:04.744Z,89.10
2018-12-09T15:38:09.118Z,88.30
2018-12-09T15:40:13.541Z,88.90
2018-12-09T15:42:17.960Z,88.90
2018-12-09T15:44:22.500Z,89.30
2018-12-09T15:46:27.142Z,89.30
2018-12-09T15:48:31.520Z,89.30
2018-12-09T15:50:36.005Z,89.10
2018-12-09T15:52:40.536Z,88.90
2018-12-09T15:54:44.952Z,88.70
2018-12-09T15:56:49.329Z,88.70
2018-12-09T15:58:53.749Z,89.00
2018-12-09T16:00:58.211Z,88.90
2018-12-09T16:03:02.750Z,88.80
2018-12-09T16:05:07.217Z,88.90
2018-12-09T16:07:11.629Z,88.00
2018-12-09T16:09:16.459Z,87.80
2018-12-09T16:11:21.007Z,88.10
2018-12-09T16:13:25.666Z,87.70
2018-12-09T16:15:30.227Z,87.80
2018-12-09T16:17:34.674Z,86.90
2018-12-09T16:19:39.928Z,87.30
2018-12-09T16:21:44.396Z,87.00
2018-12-09T16:23:48.889Z,86.40
2018-12-09T16:25:53.430Z,86.40
2018-12-09T16:27:57.867Z,86.50
2018-12-09T16:30:02.401Z,87.00
2018-12-09T16:32:06.538Z,87.30
2018-12-09T16:34:11.002Z,87.10
2018-12-09T16:36:15.487Z,87.50
2018-12-09T16:38:20.012Z,87.60
2018-12-09T16:40:24.455Z,87.60
2018-12-09T16:42:28.946Z,87.30
2018-12-09T16:44:33.403Z,87.50
2018-12-09T16:46:37.944Z,87.30
2018-12-09T16:48:43.320Z,87.40
2018-12-09T16:50:46.985Z,87.20
2018-12-09T16:52:51.495Z,87.70
2018-12-09T16:54:56.048Z,87.50
2018-12-09T16:57:00.526Z,87.40
2018-12-09T16:59:04.950Z,87.50
2018-12-09T17:01:09.468Z,87.40
2018-12-09T17:03:13.973Z,86.10
2018-12-09T17:05:18.448Z,87.10
2018-12-09T17:07:22.947Z,87.00
2018-12-09T17:09:28.055Z,86.50
2018-12-09T17:11:32.538Z,86.70
2018-12-09T17:13:37.008Z,86.00
2018-12-09T17:15:41.386Z,86.20
2018-12-09T17:17:45.813Z,86.00
2018-12-09T17:19:50.311Z,85.40
2018-12-09T17:21:54.882Z,84.90
2018-12-09T17:23:59.367Z,84.80
2018-12-09T17:26:03.838Z,85.30
2018-12-09T17:28:08.358Z,85.30
2018-12-09T17:30:12.869Z,84.30
2018-12-09T17:32:17.449Z,84.50
2018-12-09T17:34:21.855Z,84.90
2018-12-09T17:36:26.375Z,84.10
2018-12-09T17:38:30.887Z,84.30
2018-12-09T17:40:35.348Z,84.50
2018-12-09T17:42:39.791Z,85.00
2018-12-09T17:44:44.313Z,85.50
2018-12-09T17:46:48.783Z,85.10
2018-12-09T17:48:53.530Z,86.00
2018-12-09T17:50:58.612Z,86.40
2018-12-09T17:53:03.059Z,86.90
2018-12-09T17:55:07.516Z,87.50
2018-12-09T17:57:12.661Z,87.80
2018-12-09T17:59:17.084Z,88.30
2018-12-09T18:01:21.535Z,87.90
2018-12-09T18:03:26.050Z,87.30
2018-12-09T18:05:30.564Z,87.80
2018-12-09T18:07:35.066Z,88.10
2018-12-09T18:09:39.606Z,88.40
2018-12-09T18:11:44.190Z,88.30
2018-12-09T18:13:48.655Z,88.20
2018-12-09T18:16:01.840Z,88.20
2018-12-09T18:18:06.270Z,88.10
2018-12-09T18:20:10.739Z,88.60
2018-12-09T18:22:15.495Z,88.60
2018-12-09T18:24:20.349Z,88.70
2018-12-09T18:26:24.870Z,88.80
2018-12-09T18:28:29.449Z,88.60
2018-12-09T18:30:34.162Z,88.20
2018-12-09T18:32:38.719Z,87.90
2018-12-09T18:34:43.352Z,88.20
2018-12-09T18:36:47.857Z,88.00
2018-12-09T18:38:52.363Z,87.30
2018-12-09T18:40:56.892Z,86.80
2018-12-09T18:43:01.424Z,87.10
2018-12-09T18:45:06.488Z,87.10
2018-12-09T18:47:11.006Z,87.50
2018-12-09T18:49:15.517Z,87.00
2018-12-09T18:51:20.002Z,86.60
2018-12-09T18:53:24.544Z,86.70
2018-12-09T18:55:29.205Z,86.80
2018-12-09T18:57:33.667Z,86.80
2018-12-09T18:59:38.202Z,86.10
2018-12-09T19:01:42.645Z,86.20
2018-12-09T19:03:47.071Z,85.50
2018-12-09T19:05:51.588Z,85.50
2018-12-09T19:07:56.078Z,86.20
2018-12-09T19:10:02.245Z,86.00
2018-12-09T19:12:05.426Z,86.70
2018-12-09T19:14:09.934Z,86.60
2018-12-09T19:16:14.363Z,85.50
2018-12-09T19:18:19.066Z,86.50
2018-12-09T19:20:23.498Z,86.20
2018-12-09T19:22:27.950Z,85.80
2018-12-09T19:24:32.767Z,85.40
2018-12-09T19:26:37.163Z,85.50
2018-12-09T19:28:41.631Z,85.50
2018-12-09T19:30:48.332Z,85.50
2018-12-09T19:32:51.352Z,85.40
2018-12-09T19:34:55.827Z,85.40
2018-12-09T19:37:00.398Z,85.60
2018-12-09T19:39:06.070Z,85.50
2018-12-09T19:41:10.501Z,85.80
2018-12-09T19:43:15.757Z,86.30
2018-12-09T19:45:20.315Z,85.80
2018-12-09T19:47:24.798Z,85.40
2018-12-09T19:49:29.727Z,85.00
2018-12-09T19:51:34.171Z,85.00
2018-12-09T19:53:38.792Z,84.60
2018-12-09T19:55:43.245Z,84.50
2018-12-09T19:57:47.723Z,82.90
2018-12-09T19:59:52.147Z,83.80
2018-12-09T20:01:56.812Z,84.10
2018-12-09T20:04:01.442Z,84.70
2018-12-09T20:06:05.914Z,84.20
2018-12-09T20:08:10.507Z,84.00
2018-12-09T20:10:15.080Z,84.40
2018-12-09T20:12:21.654Z,84.20
2018-12-09T20:14:26.184Z,83.90
2018-12-09T20:16:30.805Z,84.20
2018-12-09T20:18:35.361Z,84.00
2018-12-09T20:20:39.838Z,83.90
2018-12-09T20:22:44.286Z,83.90
2018-12-09T20:24:48.764Z,84.20
2018-12-09T20:26:53.837Z,83.60
2018-12-09T20:28:58.488Z,84.30
2018-12-09T20:31:02.937Z,83.80
2018-12-09T20:33:11.941Z,83.80
2018-12-09T20:35:47.737Z,83.00
2018-12-09T20:37:55.381Z,83.20
2018-12-09T20:39:59.835Z,83.00
2018-12-09T20:44:21.955Z,81.60
2018-12-09T20:46:27.587Z,83.00
2018-12-09T20:48:32.220Z,82.40
2018-12-09T20:50:36.842Z,81.90
2018-12-09T20:52:41.556Z,82.40
2018-12-09T20:54:46.098Z,82.90
2018-12-09T20:56:50.556Z,82.90
2018-12-09T20:58:55.018Z,83.30
2018-12-09T21:00:59.546Z,82.70
2018-12-09T21:03:04.213Z,82.30
2018-12-09T21:05:08.771Z,82.90
2018-12-09T21:07:13.256Z,83.50
2018-12-09T21:09:17.920Z,83.30
2018-12-09T21:11:22.418Z,83.00
2018-12-09T21:13:27.133Z,83.30
2018-12-09T21:15:31.878Z,83.90
2018-12-09T21:17:36.486Z,83.80
2018-12-09T21:19:41.142Z,84.00
2018-12-09T21:21:45.633Z,83.90
2018-12-09T21:23:50.151Z,83.00
2018-12-09T21:25:54.610Z,83.40
2018-12-09T21:27:59.191Z,83.50
2018-12-09T21:30:03.754Z,84.00
2018-12-09T21:32:08.294Z,82.90
2018-12-09T21:34:12.808Z,83.40
2018-12-09T21:36:17.234Z,82.70
2018-12-09T21:38:21.810Z,82.90
2018-12-09T21:40:26.279Z,82.10
2018-12-09T21:42:30.893Z,82.40
2018-12-09T21:44:35.410Z,82.60
2018-12-09T21:46:40.471Z,82.10
2018-12-09T21:48:45.011Z,82.20
2018-12-09T21:50:49.545Z,81.80
2018-12-09T21:52:54.097Z,81.30
2018-12-09T21:54:58.585Z,81.20
2018-12-09T21:57:03.082Z,81.50
2018-12-09T21:59:07.484Z,81.60
2018-12-09T22:01:11.924Z,81.10
2018-12-09T22:03:16.410Z,81.50
2018-12-09T22:05:20.955Z,80.90
2018-12-09T22:07:26.555Z,80.30
2018-12-09T22:09:31.018Z,81.10
2018-12-09T22:11:35.521Z,81.40
2018-12-09T22:13:40.041Z,81.10
2018-12-09T22:15:44.534Z,81.50
2018-12-09T22:17:49.019Z,81.30
2018-12-09T22:20:02.613Z,81.60
2018-12-09T22:22:08.126Z,81.80
